createdAt,value
2022-09-28T00:02:21.806Z,99572.22
2022-09-28T00:04:48.267Z,99569.66
2022-09-28T00:07:14.648Z,99572.34
2022-09-28T00:09:41.031Z,99564.41
2022-09-28T00:12:07.371Z,99564.63
2022-09-28T00:14:33.997Z,99557.41
2022-09-28T00:17:00.411Z,99559.47
2022-09-28T00:19:26.912Z,99551.63
2022-09-28T00:21:53.260Z,99547.97
2022-09-28T00:24:24.034Z,99546.16
2022-09-28T00:26:55.482Z,99543.78
2022-09-28T00:29:29.290Z,99545.72
2022-09-28T00:32:00.487Z,99555.72
2022-09-28T00:34:27.731Z,99554.03
2022-09-28T00:36:54.222Z,99549.72
2022-09-28T00:39:21.405Z,99548.00
2022-09-28T00:41:49.265Z,99551.66
2022-09-28T00:44:30.934Z,99541.91
2022-09-28T00:47:18.193Z,99543.09
2022-09-28T00:50:03.143Z,99537.72
2022-09-28T00:52:39.225Z,99540.72
2022-09-28T00:55:09.888Z,99538.38
2022-09-28T00:57:39.557Z,99530.66
2022-09-28T01:00:07.286Z,99535.38
2022-09-28T01:02:33.979Z,99524.84
2022-09-28T01:05:01.453Z,99533.25
2022-09-28T01:07:28.015Z,99525.63
2022-09-28T01:09:54.826Z,99525.09
2022-09-28T01:12:21.235Z,99518.22
2022-09-28T01:14:48.491Z,99517.72
2022-09-28T01:17:16.321Z,99518.91
2022-09-28T01:20:08.344Z,99523.81
2022-09-28T01:22:34.653Z,99514.59
2022-09-28T01:25:31.725Z,99518.66
2022-09-28T01:28:04.798Z,99521.59
2022-09-28T01:30:41.549Z,99527.91
2022-09-28T01:33:16.090Z,99530.06
2022-09-28T01:35:57.038Z,99524.06
2022-09-28T01:38:48.554Z,99526.94
2022-09-28T01:41:17.801Z,99526.19
2022-09-28T01:43:50.404Z,99530.84
2022-09-28T01:46:21.799Z,99526.66
2022-09-28T01:48:53.351Z,99530.66
2022-09-28T01:51:31.986Z,99525.50
2022-09-28T01:54:07.346Z,99526.56
2022-09-28T01:56:43.105Z,99529.03
2022-09-28T01:59:20.412Z,99526.66
2022-09-28T02:01:49.948Z,99529.13
2022-09-28T02:04:45.149Z,99523.31
2022-09-28T02:07:17.557Z,99527.00
2022-09-28T02:09:58.423Z,99531.47
2022-09-28T02:12:36.298Z,99529.66
2022-09-28T02:15:14.306Z,99529.34
2022-09-28T02:17:41.614Z,99532.88
2022-09-28T02:20:09.221Z,99534.19
2022-09-28T02:22:53.466Z,99525.06
2022-09-28T02:25:40.785Z,99529.47
2022-09-28T02:28:11.242Z,99522.19
2022-09-28T02:30:39.878Z,99521.31
2022-09-28T02:33:13.269Z,99518.84
2022-09-28T02:35:41.016Z,99529.88
2022-09-28T02:38:07.512Z,99523.88
2022-09-28T02:40:36.155Z,99518.38
2022-09-28T02:43:15.206Z,99518.72
2022-09-28T02:46:02.078Z,99522.47
2022-09-28T02:48:55.837Z,99527.09
2022-09-28T02:51:59.347Z,99532.63
2022-09-28T02:54:51.746Z,99531.97
2022-09-28T02:57:39.493Z,99539.59
2022-09-28T03:00:12.139Z,99538.94
2022-09-28T03:02:45.276Z,99541.72
2022-09-28T03:05:34.703Z,99544.50
2022-09-28T03:08:16.033Z,99543.94
2022-09-28T03:11:32.253Z,99547.47
2022-09-28T03:13:59.560Z,99544.81
2022-09-28T03:16:27.422Z,99554.75
2022-09-28T03:18:53.912Z,99549.63
2022-09-28T03:21:20.286Z,99555.94
2022-09-28T03:23:47.815Z,99556.50
2022-09-28T03:26:15.069Z,99555.91
2022-09-28T03:28:41.471Z,99558.44
2022-09-28T03:31:07.946Z,99557.59
2022-09-28T03:33:34.546Z,99555.59
2022-09-28T03:36:01.275Z,99559.13
2022-09-28T03:38:27.648Z,99558.03
2022-09-28T03:40:59.006Z,99555.06
2022-09-28T03:43:27.049Z,99567.31
2022-09-28T03:45:59.148Z,99560.88
2022-09-28T03:48:32.660Z,99559.28
2022-09-28T03:51:02.194Z,99549.13
2022-09-28T03:53:29.797Z,99553.47
2022-09-28T03:56:01.784Z,99559.69
2022-09-28T03:58:28.530Z,99554.50
2022-09-28T04:00:54.974Z,99556.34
2022-09-28T04:03:21.377Z,99553.22
2022-09-28T04:05:52.522Z,99561.06
2022-09-28T04:08:19.566Z,99558.75
2022-09-28T04:10:46.584Z,99561.66
2022-09-28T04:13:13.357Z,99552.97
2022-09-28T04:15:39.723Z,99550.28
2022-09-28T04:18:13.484Z,99544.34
2022-09-28T04:20:45.379Z,99537.81
2022-09-28T04:23:12.330Z,99542.28
2022-09-28T04:25:39.730Z,99549.00
2022-09-28T04:28:24.704Z,99550.81
2022-09-28T04:30:51.069Z,99558.84
2022-09-28T04:33:17.472Z,99556.00
2022-09-28T04:35:43.871Z,99559.16
2022-09-28T04:38:10.233Z,99557.75
2022-09-28T04:40:36.845Z,99565.41
2022-09-28T04:43:03.372Z,99561.44
2022-09-28T04:45:29.886Z,99572.34
2022-09-28T04:47:56.286Z,99567.16
2022-09-28T04:50:22.807Z,99572.81
2022-09-28T04:52:49.210Z,99566.59
2022-09-28T04:55:16.861Z,99570.13
2022-09-28T04:57:43.440Z,99576.56
2022-09-28T05:00:11.974Z,99571.28
2022-09-28T05:02:38.998Z,99571.38
2022-09-28T05:05:05.977Z,99579.25
2022-09-28T05:07:32.440Z,99573.56
2022-09-28T05:09:58.857Z,99577.28
2022-09-28T05:12:25.247Z,99576.50
2022-09-28T05:14:51.609Z,99574.56
2022-09-28T05:17:18.074Z,99568.44
2022-09-28T05:19:44.438Z,99565.53
2022-09-28T05:22:14.721Z,99567.81
2022-09-28T05:24:41.648Z,99556.50
2022-09-28T05:27:08.332Z,99572.50
2022-09-28T05:29:34.835Z,99557.84
2022-09-28T05:32:01.575Z,99567.59
2022-09-28T05:34:28.218Z,99570.41
2022-09-28T05:36:54.613Z,99571.91
2022-09-28T05:39:21.059Z,99574.19
2022-09-28T05:41:47.467Z,99571.28
2022-09-28T05:44:14.013Z,99572.91
2022-09-28T05:46:40.517Z,99555.00
2022-09-28T05:49:06.899Z,99560.91
2022-09-28T05:51:33.336Z,99559.19
2022-09-28T05:54:04.639Z,99553.72
2022-09-28T05:56:32.590Z,99551.56
2022-09-28T05:58:59.054Z,99547.44
2022-09-28T06:01:25.650Z,99552.56
2022-09-28T06:03:52.113Z,99552.38
2022-09-28T06:06:18.532Z,99555.72
2022-09-28T06:08:46.379Z,99562.69
2022-09-28T06:11:12.833Z,99562.06
2022-09-28T06:13:41.796Z,99563.56
2022-09-28T06:16:08.641Z,99565.59
2022-09-28T06:18:35.404Z,99573.75
2022-09-28T06:21:02.607Z,99571.25
2022-09-28T06:23:28.942Z,99580.56
2022-09-28T06:25:55.381Z,99585.50
2022-09-28T06:28:21.782Z,99590.91
2022-09-28T06:30:48.256Z,99583.53
2022-09-28T06:33:15.204Z,99583.81
2022-09-28T06:35:42.338Z,99589.13
2022-09-28T06:38:08.963Z,99586.44
2022-09-28T06:40:36.225Z,99590.25
2022-09-28T06:43:06.593Z,99599.69
2022-09-28T06:45:32.937Z,99592.84
2022-09-28T06:48:01.033Z,99600.69
2022-09-28T06:50:32.186Z,99601.66
2022-09-28T06:52:59.734Z,99602.69
2022-09-28T06:55:27.095Z,99607.66
2022-09-28T06:58:03.868Z,99603.38
2022-09-28T07:00:33.897Z,99614.47
2022-09-28T07:03:02.778Z,99618.59
2022-09-28T07:05:29.966Z,99615.78
2022-09-28T07:07:57.258Z,99614.19
2022-09-28T07:10:25.596Z,99613.06
2022-09-28T07:12:52.330Z,99621.44
2022-09-28T07:15:19.444Z,99619.06
2022-09-28T07:17:59.223Z,99610.16
2022-09-28T07:20:29.196Z,99613.19
2022-09-28T07:22:57.803Z,99611.34
2022-09-28T07:25:29.669Z,99611.78
2022-09-28T07:27:59.996Z,99606.28
2022-09-28T07:30:28.259Z,99613.25
2022-09-28T07:32:55.327Z,99615.75
2022-09-28T07:35:22.913Z,99611.19
2022-09-28T07:37:49.376Z,99615.94
2022-09-28T07:40:34.891Z,99623.53
2022-09-28T07:43:07.457Z,99615.75
2022-09-28T07:45:38.143Z,99625.88
2022-09-28T07:48:04.824Z,99630.13
2022-09-28T07:50:31.465Z,99634.25
2022-09-28T07:52:58.450Z,99632.13
2022-09-28T07:55:24.994Z,99634.97
2022-09-28T07:57:56.151Z,99628.22
2022-09-28T08:00:22.780Z,99636.47
2022-09-28T08:02:49.259Z,99630.34
2022-09-28T08:05:15.787Z,99635.81
2022-09-28T08:07:43.383Z,99634.97
2022-09-28T08:10:10.345Z,99632.97
2022-09-28T08:12:40.101Z,99639.56
2022-09-28T08:15:10.344Z,99637.88
2022-09-28T08:17:37.455Z,99641.56
2022-09-28T08:20:22.874Z,99639.81
2022-09-28T08:22:49.334Z,99652.34
2022-09-28T08:25:15.872Z,99658.09
2022-09-28T08:27:42.306Z,99661.25
2022-09-28T08:30:09.276Z,99662.50
2022-09-28T08:32:35.760Z,99659.25
2022-09-28T08:35:02.212Z,99665.94
2022-09-28T08:37:28.793Z,99660.41
2022-09-28T08:39:55.162Z,99663.47
2022-09-28T08:42:21.963Z,99661.88
2022-09-28T08:44:57.783Z,99660.06
2022-09-28T08:48:07.938Z,99669.69
2022-09-28T08:50:40.972Z,99665.75
2022-09-28T08:53:39.656Z,99670.75
2022-09-28T08:56:11.536Z,99670.63
2022-09-28T08:58:43.069Z,99677.22
2022-09-28T09:01:16.345Z,99678.47
2022-09-28T09:03:45.279Z,99674.06
2022-09-28T09:06:26.835Z,99687.56
2022-09-28T09:09:11.810Z,99677.22
2022-09-28T09:11:48.724Z,99687.81
2022-09-28T09:14:21.089Z,99686.63
2022-09-28T09:17:00.342Z,99682.88
2022-09-28T09:19:46.066Z,99689.09
2022-09-28T09:22:16.743Z,99694.31
2022-09-28T09:24:51.183Z,99687.47
2022-09-28T09:27:20.912Z,99685.63
2022-09-28T09:30:11.862Z,99681.81
2022-09-28T09:32:41.730Z,99698.78
2022-09-28T09:35:42.277Z,99699.50
2022-09-28T09:38:47.715Z,99708.88
2022-09-28T09:41:49.622Z,99709.03
2022-09-28T09:44:36.254Z,99699.16
2022-09-28T09:47:17.006Z,99701.97
2022-09-28T09:49:45.217Z,99705.72
2022-09-28T09:52:20.506Z,99706.69
2022-09-28T09:54:55.562Z,99712.38
2022-09-28T09:57:30.045Z,99708.19
2022-09-28T09:59:59.640Z,99709.94
2022-09-28T10:02:29.507Z,99709.25
2022-09-28T10:05:02.151Z,99709.03
2022-09-28T10:07:43.262Z,99708.84
2022-09-28T10:10:20.530Z,99707.44
2022-09-28T10:12:49.823Z,99704.78
2022-09-28T10:15:28.692Z,99711.75
2022-09-28T10:17:56.932Z,99706.34
2022-09-28T10:20:25.491Z,99706.84
2022-09-28T10:22:52.310Z,99700.81
2022-09-28T10:25:19.868Z,99702.19
2022-09-28T10:27:49.552Z,99706.16
2022-09-28T10:30:23.240Z,99700.06
2022-09-28T10:32:52.499Z,99704.97
2022-09-28T10:35:19.206Z,99705.47
2022-09-28T10:37:48.515Z,99705.63
2022-09-28T10:40:32.441Z,99705.22
2022-09-28T10:43:28.694Z,99706.78
2022-09-28T10:46:20.327Z,99718.16
2022-09-28T10:48:49.587Z,99717.88
2022-09-28T10:51:16.297Z,99713.03
2022-09-28T10:54:01.749Z,99715.47
2022-09-28T10:56:35.059Z,99716.50
2022-09-28T10:59:01.567Z,99713.47
2022-09-28T11:01:33.664Z,99709.13
2022-09-28T11:04:04.436Z,99711.88
2022-09-28T11:06:40.133Z,99711.31
2022-09-28T11:09:28.462Z,99708.63
2022-09-28T11:12:04.942Z,99707.00
2022-09-28T11:14:41.909Z,99712.06
2022-09-28T11:17:24.299Z,99711.19
2022-09-28T11:19:50.828Z,99710.97
2022-09-28T11:22:22.450Z,99714.72
2022-09-28T11:24:49.644Z,99716.13
2022-09-28T11:27:25.263Z,99708.66
2022-09-28T11:29:59.148Z,99714.00
2022-09-28T11:32:30.368Z,99709.19
2022-09-28T11:35:00.371Z,99712.69
2022-09-28T11:37:47.621Z,99708.75
2022-09-28T11:40:29.382Z,99709.84
2022-09-28T11:43:15.766Z,99707.06
2022-09-28T11:46:03.553Z,99703.38
2022-09-28T11:48:42.245Z,99701.38
2022-09-28T11:51:18.611Z,99699.75
2022-09-28T11:53:55.058Z,99703.28
2022-09-28T11:56:38.155Z,99702.63
2022-09-28T11:59:28.718Z,99699.25
2022-09-28T12:01:58.079Z,99702.00
2022-09-28T12:04:39.075Z,99697.00
2022-09-28T12:07:17.527Z,99701.53
2022-09-28T12:09:53.326Z,99695.72
2022-09-28T12:13:10.106Z,99696.59
2022-09-28T12:16:23.336Z,99702.78
2022-09-28T12:18:54.932Z,99701.41
2022-09-28T12:21:38.000Z,99705.84
2022-09-28T12:24:23.441Z,99718.44
2022-09-28T12:27:03.244Z,99714.03
2022-09-28T12:29:48.054Z,99721.56
2022-09-28T12:32:42.827Z,99724.28
2022-09-28T12:35:38.587Z,99720.03
2022-09-28T12:38:08.706Z,99726.13
2022-09-28T12:40:38.173Z,99719.09
2022-09-28T12:43:22.702Z,99721.66
2022-09-28T12:46:16.902Z,99715.56
2022-09-28T12:52:02.399Z,99725.19
2022-09-28T12:54:46.686Z,99723.91
2022-09-28T12:57:50.102Z,99726.34
2022-09-28T13:00:22.615Z,99729.53
2022-09-28T13:03:13.678Z,99727.81
2022-09-28T13:06:13.470Z,99717.75
2022-09-28T13:08:48.868Z,99725.63
2022-09-28T13:11:33.131Z,99728.50
2022-09-28T13:14:34.447Z,99737.97
2022-09-28T13:17:14.412Z,99734.16
2022-09-28T13:19:59.234Z,99734.88
2022-09-28T13:22:55.036Z,99728.28
2022-09-28T13:25:25.422Z,99729.13
2022-09-28T13:27:58.089Z,99723.56
2022-09-28T13:30:25.623Z,99727.31
2022-09-28T13:32:56.191Z,99727.00
2022-09-28T13:35:22.793Z,99729.84
2022-09-28T13:38:18.118Z,99730.03
2022-09-28T13:41:09.776Z,99722.59
2022-09-28T13:43:45.282Z,99721.13
2022-09-28T13:46:24.487Z,99726.53
2022-09-28T13:49:18.371Z,99728.78
2022-09-28T13:51:58.134Z,99732.94
2022-09-28T13:54:41.963Z,99734.53
2022-09-28T13:57:27.175Z,99718.69
2022-09-28T13:59:53.519Z,99710.44
2022-09-28T14:02:51.930Z,99711.56
2022-09-28T14:05:21.271Z,99716.06
2022-09-28T14:08:09.537Z,99713.94
2022-09-28T14:10:51.980Z,99718.63
2022-09-28T14:13:43.478Z,99725.06
2022-09-28T14:16:18.891Z,99726.78
2022-09-28T14:19:08.398Z,99732.09
2022-09-28T14:21:50.036Z,99739.19
2022-09-28T14:24:55.507Z,99738.22
2022-09-28T14:27:44.594Z,99725.13
2022-09-28T14:30:10.910Z,99729.72
2022-09-28T14:32:38.837Z,99724.63
2022-09-28T14:35:18.620Z,99720.44
2022-09-28T14:38:07.465Z,99724.72
2022-09-28T14:41:10.938Z,99732.25
2022-09-28T14:43:58.536Z,99728.47
2022-09-28T14:46:24.932Z,99723.44
2022-09-28T14:49:13.628Z,99726.59
2022-09-28T14:51:39.954Z,99736.31
2022-09-28T14:54:12.260Z,99729.38
2022-09-28T14:56:40.460Z,99736.97
2022-09-28T14:59:17.756Z,99734.50
2022-09-28T15:01:53.863Z,99740.06
2022-09-28T15:04:21.145Z,99747.72
2022-09-28T15:06:50.518Z,99747.00
2022-09-28T15:09:32.407Z,99749.03
2022-09-28T15:12:03.980Z,99745.63
2022-09-28T15:14:33.117Z,99749.50
2022-09-28T15:17:02.847Z,99749.28
2022-09-28T15:20:08.647Z,99756.25
2022-09-28T15:22:36.340Z,99756.81
2022-09-28T15:25:13.222Z,99754.53
2022-09-28T15:27:41.181Z,99757.78
2022-09-28T15:30:20.022Z,99745.53
2022-09-28T15:32:46.438Z,99754.25
2022-09-28T15:35:20.452Z,99760.22
2022-09-28T15:37:52.138Z,99756.78
2022-09-28T15:40:32.956Z,99767.91
2022-09-28T15:42:59.874Z,99768.91
2022-09-28T15:45:30.679Z,99764.03
2022-09-28T15:48:18.811Z,99771.44
2022-09-28T15:51:03.893Z,99775.19
2022-09-28T15:53:31.256Z,99775.72
2022-09-28T15:56:09.900Z,99773.56
2022-09-28T15:58:38.108Z,99777.53
2022-09-28T16:01:27.154Z,99779.69
2022-09-28T16:03:54.067Z,99777.31
2022-09-28T16:06:20.705Z,99785.44
2022-09-28T16:08:48.903Z,99785.75
2022-09-28T16:11:24.212Z,99784.13
2022-09-28T16:14:06.009Z,99789.72
2022-09-28T16:16:47.320Z,99794.25
2022-09-28T16:19:37.050Z,99794.53
2022-09-28T16:22:13.897Z,99793.22
2022-09-28T16:24:40.367Z,99795.03
2022-09-28T16:27:22.938Z,99797.16
2022-09-28T16:30:21.264Z,99795.53
2022-09-28T16:32:49.564Z,99793.97
2022-09-28T16:35:22.904Z,99791.91
2022-09-28T16:38:01.410Z,99791.13
2022-09-28T16:40:28.469Z,99782.34
2022-09-28T16:42:58.729Z,99785.84
2022-09-28T16:45:25.427Z,99803.19
2022-09-28T16:47:52.784Z,99797.44
2022-09-28T16:50:21.164Z,99795.00
2022-09-28T16:53:09.321Z,99801.66
2022-09-28T16:55:41.301Z,99803.88
2022-09-28T16:58:08.309Z,99811.53
2022-09-28T17:00:34.727Z,99810.53
2022-09-28T17:03:01.131Z,99811.31
2022-09-28T17:05:27.511Z,99821.56
2022-09-28T17:08:18.821Z,99813.00
2022-09-28T17:11:14.793Z,99818.88
2022-09-28T17:13:43.917Z,99819.03
2022-09-28T17:16:17.645Z,99823.28
2022-09-28T17:18:45.064Z,99822.72
2022-09-28T17:21:15.655Z,99824.56
2022-09-28T17:23:43.101Z,99831.94
2022-09-28T17:26:23.214Z,99829.34
2022-09-28T17:28:49.660Z,99820.13
2022-09-28T17:31:16.686Z,99832.53
2022-09-28T17:33:43.540Z,99835.38
2022-09-28T17:36:14.416Z,99825.41
2022-09-28T17:38:42.835Z,99820.38
2022-09-28T17:41:20.062Z,99819.09
2022-09-28T17:43:47.094Z,99823.03
2022-09-28T17:46:26.251Z,99835.03
2022-09-28T17:48:53.549Z,99841.84
2022-09-28T17:51:20.102Z,99842.84
2022-09-28T17:53:46.553Z,99842.75
2022-09-28T17:56:12.911Z,99848.88
2022-09-28T17:58:39.328Z,99844.66
2022-09-28T18:01:05.822Z,99849.56
2022-09-28T18:03:32.289Z,99844.66
2022-09-28T18:06:00.734Z,99837.78
2022-09-28T18:08:27.102Z,99848.28
2022-09-28T18:10:54.603Z,99838.03
2022-09-28T18:13:20.983Z,99843.19
2022-09-28T18:15:51.060Z,99849.81
2022-09-28T18:18:17.543Z,99848.63
2022-09-28T18:20:43.995Z,99850.06
2022-09-28T18:23:10.383Z,99849.31
2022-09-28T18:25:44.045Z,99852.00
2022-09-28T18:28:11.851Z,99861.72
2022-09-28T18:30:43.705Z,99850.78
2022-09-28T18:33:11.888Z,99856.63
2022-09-28T18:35:38.499Z,99857.22
2022-09-28T18:38:06.348Z,99864.88
2022-09-28T18:40:34.561Z,99861.78
2022-09-28T18:43:01.037Z,99857.50
2022-09-28T18:45:27.635Z,99864.31
2022-09-28T18:47:54.033Z,99863.56
2022-09-28T18:50:20.503Z,99861.41
2022-09-28T18:52:47.368Z,99869.47
2022-09-28T18:55:13.957Z,99865.50
2022-09-28T18:57:42.246Z,99864.66
2022-09-28T19:00:11.333Z,99862.94
2022-09-28T19:02:38.183Z,99857.44
2022-09-28T19:05:05.907Z,99859.03
2022-09-28T19:07:33.454Z,99856.69
2022-09-28T19:09:59.844Z,99859.50
2022-09-28T19:12:26.349Z,99863.66
2022-09-28T19:14:52.893Z,99863.66
2022-09-28T19:17:19.702Z,99860.88
2022-09-28T19:19:46.058Z,99864.88
2022-09-28T19:22:12.518Z,99868.66
2022-09-28T19:24:38.960Z,99868.22
2022-09-28T19:27:05.471Z,99866.50
2022-09-28T19:29:31.848Z,99869.44
2022-09-28T19:31:58.680Z,99876.22
2022-09-28T19:34:27.001Z,99866.56
2022-09-28T19:36:53.409Z,99868.94
2022-09-28T19:39:19.815Z,99867.88
2022-09-28T19:41:52.930Z,99866.81
2022-09-28T19:44:27.471Z,99869.75
2022-09-28T19:46:55.610Z,99866.63
2022-09-28T19:49:23.681Z,99864.47
2022-09-28T19:52:11.941Z,99866.84
2022-09-28T19:54:39.604Z,99867.28
2022-09-28T19:57:08.568Z,99862.34
2022-09-28T19:59:36.844Z,99860.06
2022-09-28T20:02:04.659Z,99862.75
2022-09-28T20:04:31.061Z,99864.81
2022-09-28T20:06:57.704Z,99868.56
2022-09-28T20:09:24.122Z,99876.84
2022-09-28T20:11:51.815Z,99878.69
2022-09-28T20:14:23.423Z,99879.97
2022-09-28T20:16:52.239Z,99883.63
2022-09-28T20:19:21.449Z,99885.34
2022-09-28T20:21:48.305Z,99889.88
2022-09-28T20:24:17.136Z,99884.91
2022-09-28T20:26:44.580Z,99884.47
2022-09-28T20:29:11.920Z,99885.47
2022-09-28T20:31:38.459Z,99884.47
2022-09-28T20:34:06.357Z,99893.75
2022-09-28T20:36:33.294Z,99893.97
2022-09-28T20:39:04.026Z,99904.28
2022-09-28T20:41:36.564Z,99901.28
2022-09-28T20:44:05.933Z,99904.38
2022-09-28T20:46:34.685Z,99905.66
2022-09-28T20:49:01.592Z,99915.75
2022-09-28T20:51:28.144Z,99915.84
2022-09-28T20:53:56.950Z,99909.63
2022-09-28T20:56:25.754Z,99911.78
2022-09-28T20:58:53.077Z,99919.00
2022-09-28T21:01:30.202Z,99917.59
2022-09-28T21:03:59.274Z,99914.72
2022-09-28T21:06:30.927Z,99918.25
2022-09-28T21:08:57.730Z,99918.47
2022-09-28T21:11:25.280Z,99922.97
2022-09-28T21:13:53.490Z,99922.78
2022-09-28T21:16:20.319Z,99917.59
2022-09-28T21:18:47.561Z,99919.53
2022-09-28T21:21:17.296Z,99912.31
2022-09-28T21:23:47.001Z,99920.63
2022-09-28T21:26:24.624Z,99913.41
2022-09-28T21:29:02.780Z,99916.19
2022-09-28T21:31:38.027Z,99915.53
2022-09-28T21:34:04.755Z,99917.28
2022-09-28T21:36:31.547Z,99909.22
2022-09-28T21:38:58.068Z,99908.53
2022-09-28T21:41:24.986Z,99912.00
2022-09-28T21:43:52.050Z,99910.38
2022-09-28T21:46:18.684Z,99925.75
2022-09-28T21:48:45.340Z,99917.34
2022-09-28T21:51:15.590Z,99921.22
2022-09-28T21:53:42.635Z,99918.41
2022-09-28T21:56:12.054Z,99923.34
2022-09-28T21:58:38.763Z,99932.56
2022-09-28T22:01:07.289Z,99934.59
2022-09-28T22:03:35.874Z,99928.69
2022-09-28T22:06:03.582Z,99929.53
2022-09-28T22:08:30.324Z,99928.03
2022-09-28T22:11:02.545Z,99929.09
2022-09-28T22:13:30.482Z,99932.06
2022-09-28T22:16:00.270Z,99930.53
2022-09-28T22:18:28.634Z,99932.88
2022-09-28T22:21:21.109Z,99935.00
2022-09-28T22:23:48.407Z,99935.78
2022-09-28T22:26:18.961Z,99931.50
2022-09-28T22:28:57.376Z,99939.84
2022-09-28T22:31:26.996Z,99943.03
2022-09-28T22:33:54.139Z,99944.06
2022-09-28T22:36:21.090Z,99954.25
2022-09-28T22:38:48.435Z,99947.06
2022-09-28T22:41:16.992Z,99950.22
2022-09-28T22:43:43.745Z,99945.25
2022-09-28T22:46:16.427Z,99944.47
2022-09-28T22:48:53.647Z,99954.53
2022-09-28T22:51:21.323Z,99952.16
2022-09-28T22:53:48.052Z,99959.22
2022-09-28T22:56:18.764Z,99963.94
2022-09-28T22:58:46.162Z,99958.00
2022-09-28T23:01:13.986Z,99951.78
2022-09-28T23:03:42.052Z,99959.19
2022-09-28T23:06:09.884Z,99956.81
2022-09-28T23:08:36.327Z,99961.31
2022-09-28T23:11:03.383Z,99962.28
2022-09-28T23:13:31.068Z,99956.81
2022-09-28T23:16:02.145Z,99956.81
2022-09-28T23:18:30.874Z,99952.94
2022-09-28T23:20:59.378Z,99951.25
2022-09-28T23:23:26.337Z,99950.47
2022-09-28T23:25:53.390Z,99953.38
2022-09-28T23:28:21.730Z,99948.38
2022-09-28T23:30:48.892Z,99951.16
2022-09-28T23:33:17.675Z,99946.72
2022-09-28T23:35:44.519Z,99948.56
2022-09-28T23:38:16.496Z,99951.16
2022-09-28T23:40:43.334Z,99954.78
2022-09-28T23:43:09.737Z,99955.66
2022-09-28T23:45:36.180Z,99960.13
2022-09-28T23:48:02.643Z,99961.09
2022-09-28T23:50:29.345Z,99962.06
2022-09-28T23:52:55.912Z,99956.91
2022-09-28T23:55:22.929Z,99964.16
2022-09-28T23:57:49.331Z,99963.31
